CheckWX is a tool to help pilots better visualize weather data.  It is not intended as a substitute for an official pre-flight weather briefing.

19:15:17 UTC

KIAB TAF
Mc Connell AFB Airport
Wichita, Kansas, USA
TAF KIAB 161800Z 1618/1724 17009KT 9999 FEW180 SCT250 QNH2991INS BECMG 1623/1624 VRB06KT 9999 BKN150 QNH2988INS BECMG 1705/1706 VRB06KT 8000 BR SCT010 QNH2982INS BECMG 1711/1712 VRB06KT 9999 NSW SCT100 BKN200 QNH2978INS BECMG 1717/1718 35012KT 9999 FEW200 QNH2980INS TX12/1621Z TN04/1708Z

Feb-16@
18:00 UTC

Feb-16 @ 18:00 UTC

Feb-16@
23:00 UTC

Feb-16 @ 23:00 UTC

TAF KIAB 161800Z 1618/1724 17009KT 9999 FEW180 SCT250 QNH2991INS
Wind
  • 170° at 9 KTS
Cloud Levels
  • Few at 18,000' AGL
  • Scattered at 25,000' AGL

Feb-16@
23:00 UTC

Feb-16 @ 23:00 UTC

Feb-17@
05:00 UTC

Feb-17 @ 05:00 UTC

BECMG 1623/1624 VRB06KT 9999 BKN150 QNH2988INS

Becoming

Becoming Conditions expected by Mon, Feb 17, 2020 @ 00:00 UTC

Wind
  • Variable at 6 KTS
Cloud Levels
  • Broken at 15,000' AGL

Feb-17@
05:00 UTC

Feb-17 @ 05:00 UTC

Feb-17@
11:00 UTC

Feb-17 @ 11:00 UTC

BECMG 1705/1706 VRB06KT 8000 BR SCT010 QNH2982INS

Becoming

Becoming Conditions expected by Mon, Feb 17, 2020 @ 06:00 UTC

Wind
  • Variable at 6 KTS
Conditions
Mist
Cloud Levels
  • Scattered at 1,000' AGL

Feb-17@
11:00 UTC

Feb-17 @ 11:00 UTC

Feb-17@
17:00 UTC

Feb-17 @ 17:00 UTC

BECMG 1711/1712 VRB06KT 9999 NSW SCT100 BKN200 QNH2978INS

Becoming

Becoming Conditions expected by Mon, Feb 17, 2020 @ 12:00 UTC

Wind
  • Variable at 6 KTS
Conditions
No significant weather
Cloud Levels
  • Scattered at 10,000' AGL
  • Broken at 20,000' AGL

Feb-17@
17:00 UTC

Feb-17 @ 17:00 UTC

Feb-18@
00:00 UTC

Feb-18 @ 00:00 UTC

BECMG 1717/1718 35012KT 9999 FEW200 QNH2980INS TX12/1621Z TN04/1708Z

Becoming

Becoming Conditions expected by Mon, Feb 17, 2020 @ 18:00 UTC

Wind
  • 350° at 12 KTS
Conditions
No significant weather
Cloud Levels
  • Few at 20,000' AGL